createdAt,value
2022-09-03T00:00:32.929Z,25.19
2022-09-03T00:02:59.440Z,25.18
2022-09-03T00:05:25.779Z,25.20
2022-09-03T00:07:52.153Z,25.17
2022-09-03T00:10:18.544Z,25.17
2022-09-03T00:12:44.917Z,25.18
2022-09-03T00:15:11.299Z,25.18
2022-09-03T00:17:37.682Z,25.17
2022-09-03T00:20:04.116Z,25.18
2022-09-03T00:22:30.501Z,25.19
2022-09-03T00:24:56.883Z,25.17
2022-09-03T00:27:23.252Z,25.19
2022-09-03T00:29:49.655Z,25.17
2022-09-03T00:32:16.034Z,25.19
2022-09-03T00:34:42.418Z,25.17
2022-09-03T00:37:12.399Z,25.15
2022-09-03T00:39:35.251Z,25.17
2022-09-03T00:42:01.592Z,25.15
2022-09-03T00:44:27.974Z,25.14
2022-09-03T00:46:54.354Z,25.16
2022-09-03T00:49:20.738Z,25.17
2022-09-03T00:51:47.113Z,25.16
2022-09-03T00:54:13.498Z,25.16
2022-09-03T00:56:39.882Z,25.16
2022-09-03T00:59:06.264Z,25.15
2022-09-03T01:01:32.754Z,25.16
2022-09-03T01:03:59.023Z,25.15
2022-09-03T01:06:25.393Z,25.14
2022-09-03T01:08:51.862Z,25.14
2022-09-03T01:11:18.244Z,25.12
2022-09-03T01:13:44.630Z,25.14
2022-09-03T01:16:11.075Z,25.12
2022-09-03T01:18:37.384Z,25.12
2022-09-03T01:21:03.757Z,25.13
2022-09-03T01:23:30.139Z,25.12
2022-09-03T01:25:56.512Z,25.12
2022-09-03T01:28:22.994Z,25.13
2022-09-03T01:30:49.348Z,25.12
2022-09-03T01:33:15.652Z,25.13
2022-09-03T01:35:42.038Z,25.14
2022-09-03T01:38:08.422Z,25.15
2022-09-03T01:40:34.806Z,25.17
2022-09-03T01:43:01.214Z,25.15
2022-09-03T01:45:27.646Z,25.14
2022-09-03T01:47:54.079Z,25.15
2022-09-03T01:50:20.452Z,25.12
2022-09-03T01:52:46.946Z,25.14
2022-09-03T01:55:13.334Z,25.14
2022-09-03T01:57:39.714Z,25.14
2022-09-03T02:00:06.099Z,25.13
2022-09-03T02:02:32.578Z,25.12
2022-09-03T02:04:58.889Z,25.12
2022-09-03T02:07:25.270Z,25.12
2022-09-03T02:09:51.654Z,25.12
2022-09-03T02:12:18.042Z,25.13
2022-09-03T02:14:44.424Z,25.12
2022-09-03T02:17:10.870Z,25.13
2022-09-03T02:19:37.249Z,25.12
2022-09-03T02:22:03.635Z,25.10
2022-09-03T02:24:30.022Z,25.10
2022-09-03T02:26:56.403Z,25.14
2022-09-03T02:29:22.789Z,25.13
2022-09-03T02:31:49.175Z,25.12
2022-09-03T02:34:16.503Z,25.11
2022-09-03T02:36:43.280Z,25.11
2022-09-03T02:39:08.340Z,25.10
2022-09-03T02:41:34.758Z,25.12
2022-09-03T02:44:01.134Z,25.10
2022-09-03T02:46:27.613Z,25.11
2022-09-03T02:48:53.948Z,25.10
2022-09-03T02:51:20.338Z,25.11
2022-09-03T02:53:46.712Z,25.11
2022-09-03T02:56:13.100Z,25.11
2022-09-03T02:58:39.476Z,25.10
2022-09-03T03:01:05.912Z,25.10
2022-09-03T03:03:32.240Z,25.12
2022-09-03T03:05:58.624Z,25.11
2022-09-03T03:08:25.098Z,25.12
2022-09-03T03:10:51.391Z,25.10
2022-09-03T03:13:17.792Z,25.10
2022-09-03T03:15:44.188Z,25.10
2022-09-03T03:18:10.577Z,25.10
2022-09-03T03:20:36.955Z,25.10
2022-09-03T03:23:03.340Z,25.08
2022-09-03T03:25:29.719Z,25.07
2022-09-03T03:27:56.099Z,25.09
2022-09-03T03:30:22.478Z,25.08
2022-09-03T03:32:48.856Z,25.08
2022-09-03T03:35:15.238Z,25.08
2022-09-03T03:37:41.746Z,25.10
2022-09-03T03:40:08.135Z,25.10
2022-09-03T03:42:34.532Z,25.07
2022-09-03T03:45:00.919Z,25.08
2022-09-03T03:47:27.301Z,25.06
2022-09-03T03:49:53.710Z,25.05
2022-09-03T03:52:20.097Z,25.07
2022-09-03T03:54:46.474Z,25.06
2022-09-03T03:57:12.883Z,25.07
2022-09-03T03:59:39.270Z,25.07
2022-09-03T04:02:05.677Z,25.05
2022-09-03T04:04:32.035Z,25.05
2022-09-03T04:06:58.426Z,25.07
2022-09-03T04:09:24.803Z,25.06
2022-09-03T04:11:51.189Z,25.06
2022-09-03T04:14:17.626Z,25.07
2022-09-03T04:16:44.047Z,25.07
2022-09-03T04:19:10.397Z,25.06
2022-09-03T04:21:36.798Z,25.05
2022-09-03T04:24:03.179Z,25.06
2022-09-03T04:26:29.561Z,25.06
2022-09-03T04:28:55.944Z,25.06
2022-09-03T04:31:22.326Z,25.07
2022-09-03T04:33:48.786Z,25.06
2022-09-03T04:36:15.169Z,25.06
2022-09-03T04:38:41.548Z,25.06
2022-09-03T04:41:07.946Z,25.07
2022-09-03T04:43:34.321Z,25.05
2022-09-03T04:46:00.735Z,25.07
2022-09-03T04:48:27.120Z,25.07
2022-09-03T04:50:53.515Z,25.06
2022-09-03T04:53:19.894Z,25.05
2022-09-03T04:55:46.278Z,25.05
2022-09-03T04:58:12.660Z,25.06
2022-09-03T05:00:39.056Z,25.07
2022-09-03T05:03:05.472Z,25.08
2022-09-03T05:05:31.907Z,25.08
2022-09-03T05:07:58.317Z,25.06
2022-09-03T05:10:24.699Z,25.06
2022-09-03T05:12:51.103Z,25.06
2022-09-03T05:15:17.490Z,25.05
2022-09-03T05:17:43.971Z,25.04
2022-09-03T05:20:10.410Z,25.03
2022-09-03T05:22:36.784Z,24.92
2022-09-03T05:25:03.168Z,24.99
2022-09-03T05:27:29.549Z,24.98
2022-09-03T05:29:55.934Z,24.97
2022-09-03T05:32:22.317Z,24.93
2022-09-03T05:34:48.709Z,24.89
2022-09-03T05:37:15.080Z,24.87
2022-09-03T05:39:41.502Z,24.86
2022-09-03T05:42:07.844Z,24.86
2022-09-03T05:44:34.234Z,24.83
2022-09-03T05:47:00.623Z,24.83
2022-09-03T05:49:27.013Z,24.83
2022-09-03T05:51:53.393Z,24.83
2022-09-03T05:54:19.766Z,24.83
2022-09-03T05:56:46.153Z,24.80
2022-09-03T05:59:12.544Z,24.80
2022-09-03T06:01:38.995Z,24.79
2022-09-03T06:04:05.311Z,24.81
2022-09-03T06:06:31.686Z,24.81
2022-09-03T06:08:58.080Z,24.80
2022-09-03T06:11:24.454Z,24.82
2022-09-03T06:13:50.835Z,24.82
2022-09-03T06:16:17.271Z,24.83
2022-09-03T06:18:43.679Z,24.84
2022-09-03T06:21:10.064Z,24.79
2022-09-03T06:23:36.497Z,24.79
2022-09-03T06:26:05.271Z,24.83
2022-09-03T06:28:29.227Z,24.75
2022-09-03T06:30:55.604Z,24.79
2022-09-03T06:33:22.023Z,24.77
2022-09-03T06:35:49.328Z,24.74
2022-09-03T06:38:14.807Z,24.75
2022-09-03T06:40:41.134Z,24.72
2022-09-03T06:43:07.502Z,24.76
2022-09-03T06:45:33.934Z,24.78
2022-09-03T06:48:00.273Z,24.77
2022-09-03T06:50:27.420Z,24.77
2022-09-03T06:52:53.029Z,24.74
2022-09-03T06:55:19.439Z,24.82
2022-09-03T06:57:45.815Z,24.72
2022-09-03T07:00:12.200Z,24.78
2022-09-03T07:02:42.749Z,24.76
2022-09-03T07:05:04.964Z,24.74
2022-09-03T07:07:31.343Z,24.74
2022-09-03T07:09:57.728Z,24.79
2022-09-03T07:12:24.108Z,24.76
2022-09-03T07:14:51.233Z,24.76
2022-09-03T07:17:16.899Z,24.77
2022-09-03T07:19:43.289Z,24.76
2022-09-03T07:22:09.670Z,24.81
2022-09-03T07:24:36.048Z,24.82
2022-09-03T07:27:02.434Z,24.82
2022-09-03T07:29:28.812Z,24.77
2022-09-03T07:31:55.233Z,24.81
2022-09-03T07:34:22.076Z,24.84
2022-09-03T07:36:48.950Z,24.85
2022-09-03T07:39:14.544Z,24.84
2022-09-03T07:41:40.920Z,24.87
2022-09-03T07:44:07.418Z,24.87
2022-09-03T07:46:33.868Z,24.93
2022-09-03T07:49:00.197Z,24.91
2022-09-03T07:51:26.630Z,24.91
2022-09-03T07:53:52.964Z,24.92
2022-09-03T07:56:19.374Z,24.87
2022-09-03T07:58:45.757Z,24.93
2022-09-03T08:01:12.181Z,24.96
2022-09-03T08:03:38.552Z,24.97
2022-09-03T08:06:04.903Z,24.97
2022-09-03T08:08:35.537Z,24.93
2022-09-03T08:10:57.666Z,24.93
2022-09-03T08:13:24.035Z,24.97
2022-09-03T08:15:50.669Z,25.00
2022-09-03T08:18:17.057Z,24.98
2022-09-03T08:20:43.400Z,25.00
2022-09-03T08:23:09.776Z,25.03
2022-09-03T08:25:36.165Z,25.04
2022-09-03T08:28:02.538Z,25.03
2022-09-03T08:30:28.929Z,25.02
2022-09-03T08:32:55.314Z,25.07
2022-09-03T08:35:21.767Z,25.07
2022-09-03T08:37:48.158Z,25.07
2022-09-03T08:40:15.628Z,25.07
2022-09-03T08:42:40.957Z,25.13
2022-09-03T08:45:08.766Z,25.14
2022-09-03T08:47:33.716Z,25.12
2022-09-03T08:50:00.108Z,25.11
2022-09-03T08:52:26.487Z,25.15
2022-09-03T08:54:52.876Z,25.11
2022-09-03T08:57:19.316Z,25.14
2022-09-03T08:59:45.699Z,25.18
2022-09-03T09:02:12.171Z,25.18
2022-09-03T09:04:38.458Z,25.16
2022-09-03T09:07:04.839Z,25.16
2022-09-03T09:09:31.224Z,25.19
2022-09-03T09:11:57.601Z,25.19
2022-09-03T09:14:23.992Z,25.19
2022-09-03T09:16:50.365Z,25.19
2022-09-03T09:19:16.759Z,25.22
2022-09-03T09:21:43.129Z,25.24
2022-09-03T09:24:09.516Z,25.25
2022-09-03T09:26:35.898Z,25.27
2022-09-03T09:29:02.279Z,25.25
2022-09-03T09:31:28.698Z,25.29
2022-09-03T09:33:55.088Z,25.30
2022-09-03T09:36:21.469Z,25.30
2022-09-03T09:38:47.859Z,25.30
2022-09-03T09:41:14.267Z,25.31
2022-09-03T09:43:40.642Z,25.33
2022-09-03T09:46:07.067Z,25.34
2022-09-03T09:48:33.408Z,25.34
2022-09-03T09:50:59.795Z,25.35
2022-09-03T09:53:26.183Z,25.35
2022-09-03T09:55:52.562Z,25.38
2022-09-03T09:58:18.939Z,25.39
2022-09-03T10:00:45.325Z,25.40
2022-09-03T10:03:11.748Z,25.40
2022-09-03T10:05:38.095Z,25.41
2022-09-03T10:08:04.516Z,25.43
2022-09-03T10:10:30.881Z,25.45
2022-09-03T10:12:57.262Z,25.47
2022-09-03T10:15:23.649Z,25.46
2022-09-03T10:17:50.049Z,25.49
2022-09-03T10:20:16.433Z,25.51
2022-09-03T10:22:56.573Z,25.53
2022-09-03T10:25:09.201Z,25.53
2022-09-03T10:27:35.682Z,25.54
2022-09-03T10:30:02.126Z,25.55
2022-09-03T10:32:37.841Z,25.56
2022-09-03T10:34:54.905Z,25.59
2022-09-03T10:37:21.290Z,25.59
2022-09-03T10:39:51.651Z,25.62
2022-09-03T10:42:14.300Z,25.64
2022-09-03T10:44:40.681Z,25.63
2022-09-03T10:47:07.073Z,25.65
2022-09-03T10:49:33.457Z,25.68
2022-09-03T10:51:59.851Z,25.70
2022-09-03T10:54:26.243Z,25.70
2022-09-03T10:56:52.630Z,25.71
2022-09-03T10:59:19.007Z,25.73
2022-09-03T11:01:45.429Z,25.73
2022-09-03T11:04:11.849Z,25.76
2022-09-03T11:06:38.251Z,25.79
2022-09-03T11:09:06.736Z,25.79
2022-09-03T11:11:31.037Z,25.81
2022-09-03T11:13:57.412Z,25.83
2022-09-03T11:16:23.858Z,25.86
2022-09-03T11:18:50.192Z,25.90
2022-09-03T11:21:16.581Z,25.91
2022-09-03T11:23:42.999Z,25.92
2022-09-03T11:26:09.389Z,25.95
2022-09-03T11:28:35.774Z,25.95
2022-09-03T11:31:02.200Z,25.99
2022-09-03T11:33:28.537Z,25.96
2022-09-03T11:35:54.919Z,25.98
2022-09-03T11:38:21.327Z,26.01
2022-09-03T11:40:47.715Z,26.03
2022-09-03T11:43:14.096Z,26.06
2022-09-03T11:45:40.632Z,26.05
2022-09-03T11:48:06.885Z,26.09
2022-09-03T11:50:33.340Z,26.13
2022-09-03T11:52:59.676Z,26.14
2022-09-03T11:55:26.055Z,26.17
2022-09-03T11:57:52.441Z,26.19
2022-09-03T12:00:18.827Z,26.21
2022-09-03T12:02:45.323Z,26.25
2022-09-03T12:05:11.611Z,26.27
2022-09-03T12:07:37.991Z,26.29
2022-09-03T12:10:04.367Z,26.29
2022-09-03T12:12:30.839Z,26.32
2022-09-03T12:14:57.227Z,26.34
2022-09-03T12:17:23.612Z,26.36
2022-09-03T12:19:49.998Z,26.39
2022-09-03T12:22:16.384Z,26.40
2022-09-03T12:24:42.765Z,26.42
2022-09-03T12:27:09.149Z,26.46
2022-09-03T12:29:35.574Z,26.46
2022-09-03T12:32:01.957Z,26.37
2022-09-03T12:34:28.344Z,26.31
2022-09-03T12:36:54.731Z,26.32
2022-09-03T12:40:04.772Z,26.21
2022-09-03T12:41:47.544Z,26.22
2022-09-03T12:44:13.876Z,26.23
2022-09-03T12:46:40.310Z,26.22
2022-09-03T12:51:51.191Z,26.25
2022-09-03T12:53:59.463Z,26.30
2022-09-03T12:56:25.951Z,26.23
2022-09-03T12:58:52.263Z,26.26
2022-09-03T13:01:18.742Z,26.24
2022-09-03T13:03:45.035Z,26.21
2022-09-03T13:06:11.424Z,26.23
2022-09-03T13:08:37.821Z,26.98
2022-09-03T13:11:04.204Z,27.41
2022-09-03T13:13:30.601Z,27.62
2022-09-03T13:15:56.989Z,27.77
2022-09-03T13:18:23.379Z,27.82
2022-09-03T13:20:49.765Z,27.87
2022-09-03T13:23:16.207Z,27.93
2022-09-03T13:25:42.561Z,27.90
2022-09-03T13:28:08.934Z,27.88
2022-09-03T13:30:35.394Z,27.94
2022-09-03T13:33:01.767Z,27.95
2022-09-03T13:35:28.183Z,27.94
2022-09-03T13:37:54.572Z,27.93
2022-09-03T13:40:20.952Z,27.96
2022-09-03T13:42:47.355Z,27.96
2022-09-03T13:45:13.738Z,27.95
2022-09-03T13:47:40.120Z,27.96
2022-09-03T13:50:06.498Z,27.99
2022-09-03T13:52:32.888Z,28.02
2022-09-03T13:54:59.262Z,27.76
2022-09-03T13:57:25.643Z,27.82
2022-09-03T13:59:52.026Z,27.76
2022-09-03T14:02:18.482Z,27.74
2022-09-03T14:04:44.789Z,27.42
2022-09-03T14:07:11.203Z,27.04
2022-09-03T14:09:37.740Z,26.92
2022-09-03T14:12:04.116Z,26.87
2022-09-03T14:14:30.508Z,26.81
2022-09-03T14:16:56.914Z,26.76
2022-09-03T14:19:23.278Z,26.76
2022-09-03T14:21:49.666Z,26.76
2022-09-03T14:24:16.052Z,26.62
2022-09-03T14:26:42.446Z,27.03
2022-09-03T14:29:08.882Z,26.87
2022-09-03T14:31:35.321Z,26.97
2022-09-03T14:34:01.665Z,26.70
2022-09-03T14:36:28.061Z,26.74
2022-09-03T14:38:54.473Z,26.77
2022-09-03T14:41:20.885Z,26.65
2022-09-03T14:43:47.268Z,26.70
2022-09-03T14:46:13.833Z,26.79
2022-09-03T14:48:40.105Z,26.30
2022-09-03T14:51:06.504Z,26.32
2022-09-03T14:53:32.925Z,26.31
2022-09-03T14:55:59.324Z,26.15
2022-09-03T14:58:25.717Z,25.90
2022-09-03T15:00:52.159Z,25.92
2022-09-03T15:03:18.491Z,25.91
2022-09-03T15:05:44.919Z,25.76
2022-09-03T15:08:11.320Z,25.61
2022-09-03T15:10:37.699Z,25.56
2022-09-03T15:13:04.086Z,25.57
2022-09-03T15:15:30.473Z,25.53
2022-09-03T15:17:56.858Z,25.56
2022-09-03T15:20:23.249Z,25.48
2022-09-03T15:22:50.273Z,25.49
2022-09-03T15:25:16.023Z,25.54
2022-09-03T15:27:42.411Z,25.53
2022-09-03T15:30:08.914Z,25.45
2022-09-03T15:32:35.322Z,25.49
2022-09-03T15:35:01.701Z,25.47
2022-09-03T15:37:28.091Z,25.42
2022-09-03T15:39:54.533Z,25.34
2022-09-03T15:42:20.981Z,25.33
2022-09-03T15:44:47.368Z,25.21
2022-09-03T15:47:14.319Z,25.20
2022-09-03T15:49:40.157Z,25.06
2022-09-03T15:52:06.543Z,25.05
2022-09-03T15:54:32.921Z,25.08
2022-09-03T15:56:59.318Z,25.05
2022-09-03T15:59:25.705Z,25.06
2022-09-03T16:01:52.094Z,25.04
2022-09-03T16:04:18.504Z,25.02
2022-09-03T16:06:44.888Z,25.02
2022-09-03T16:09:11.268Z,24.97
2022-09-03T16:11:37.654Z,24.97
2022-09-03T16:14:04.028Z,25.02
2022-09-03T16:16:30.514Z,25.08
2022-09-03T16:18:56.802Z,25.02
2022-09-03T16:21:23.299Z,24.99
2022-09-03T16:23:49.681Z,25.00
2022-09-03T16:26:16.063Z,25.04
2022-09-03T16:28:42.455Z,25.05
2022-09-03T16:31:08.859Z,25.08
2022-09-03T16:33:35.212Z,25.06
2022-09-03T16:36:01.599Z,25.04
2022-09-03T16:38:27.989Z,25.03
2022-09-03T16:40:54.379Z,25.06
2022-09-03T16:43:39.272Z,25.03
2022-09-03T16:45:47.435Z,25.03
2022-09-03T16:48:13.755Z,24.98
2022-09-03T16:50:40.181Z,25.00
2022-09-03T16:53:06.559Z,25.04
2022-09-03T16:55:32.938Z,25.06
2022-09-03T16:57:59.320Z,25.14
2022-09-03T17:00:25.703Z,25.17
2022-09-03T17:02:52.117Z,25.40
2022-09-03T17:05:18.467Z,25.49
2022-09-03T17:07:44.918Z,25.53
2022-09-03T17:10:11.295Z,25.53
2022-09-03T17:12:37.682Z,25.58
2022-09-03T17:15:04.073Z,25.59
2022-09-03T17:17:30.445Z,25.61
2022-09-03T17:19:56.855Z,25.57
2022-09-03T17:22:23.210Z,25.60
2022-09-03T17:24:50.550Z,25.58
2022-09-03T17:27:16.014Z,25.60
2022-09-03T17:29:42.398Z,25.61
2022-09-03T17:32:08.778Z,25.60
2022-09-03T17:34:35.283Z,25.62
2022-09-03T17:37:01.663Z,25.60
2022-09-03T17:39:28.129Z,25.63
2022-09-03T17:41:54.437Z,25.62
2022-09-03T17:44:20.832Z,25.64
2022-09-03T17:46:47.276Z,25.63
2022-09-03T17:49:13.596Z,25.63
2022-09-03T17:51:39.973Z,25.62
2022-09-03T17:54:06.361Z,25.61
2022-09-03T17:56:32.741Z,25.60
2022-09-03T17:58:59.119Z,25.61
2022-09-03T18:01:25.553Z,25.62
2022-09-03T18:03:51.931Z,25.62
2022-09-03T18:06:18.284Z,25.61
2022-09-03T18:08:44.667Z,25.61
2022-09-03T18:11:11.048Z,25.61
2022-09-03T18:13:37.432Z,25.63
2022-09-03T18:16:03.875Z,25.63
2022-09-03T18:18:30.191Z,25.61
2022-09-03T18:21:20.734Z,25.62
2022-09-03T18:23:23.049Z,25.63
2022-09-03T18:25:49.332Z,25.62
2022-09-03T18:28:15.724Z,25.63
2022-09-03T18:30:42.097Z,25.64
2022-09-03T18:33:08.487Z,25.63
2022-09-03T18:35:36.576Z,25.62
2022-09-03T18:38:01.252Z,25.63
2022-09-03T18:40:27.628Z,25.65
2022-09-03T18:42:54.041Z,25.63
2022-09-03T18:45:22.507Z,25.60
2022-09-03T18:48:06.019Z,25.63
2022-09-03T18:50:13.195Z,25.65
2022-09-03T18:52:39.582Z,25.61
2022-09-03T18:55:08.291Z,25.63
2022-09-03T18:57:32.340Z,25.64
2022-09-03T18:59:58.712Z,25.64
2022-09-03T19:02:25.177Z,25.63
2022-09-03T19:04:51.471Z,25.63
2022-09-03T19:07:18.003Z,25.65
2022-09-03T19:09:44.381Z,25.66
2022-09-03T19:12:12.449Z,25.65
2022-09-03T19:14:37.148Z,25.66
2022-09-03T19:17:03.531Z,25.64
2022-09-03T19:19:29.912Z,25.68
2022-09-03T19:21:59.670Z,25.65
2022-09-03T19:24:23.940Z,25.67
2022-09-03T19:26:49.127Z,25.66
2022-09-03T19:29:15.500Z,25.67
2022-09-03T19:31:42.022Z,25.68
2022-09-03T19:34:08.309Z,25.70
2022-09-03T19:36:34.699Z,25.67
2022-09-03T19:39:01.068Z,25.71
2022-09-03T19:41:27.460Z,25.70
2022-09-03T19:43:53.839Z,25.71
2022-09-03T19:46:20.344Z,25.70
2022-09-03T19:48:46.673Z,25.72
2022-09-03T19:51:13.087Z,25.71
2022-09-03T19:53:39.467Z,25.70
2022-09-03T19:56:07.848Z,25.72
2022-09-03T19:58:43.244Z,25.70
2022-09-03T20:00:58.722Z,25.71
2022-09-03T20:03:25.125Z,25.69
2022-09-03T20:05:51.504Z,25.69
2022-09-03T20:08:17.889Z,25.68
2022-09-03T20:10:44.276Z,25.68
2022-09-03T20:13:10.680Z,25.68
2022-09-03T20:15:37.150Z,25.69
2022-09-03T20:18:03.520Z,25.68
2022-09-03T20:20:29.900Z,25.67
2022-09-03T20:22:56.285Z,25.68
2022-09-03T20:25:22.664Z,25.67
2022-09-03T20:27:49.049Z,25.67
2022-09-03T20:30:15.431Z,25.67
2022-09-03T20:32:41.841Z,25.67
2022-09-03T20:35:08.227Z,25.68
2022-09-03T20:37:34.636Z,25.68
2022-09-03T20:40:01.044Z,25.67
2022-09-03T20:42:27.404Z,25.66
2022-09-03T20:44:53.787Z,25.66
2022-09-03T20:47:20.166Z,25.66
2022-09-03T20:49:46.552Z,25.66
2022-09-03T20:52:12.928Z,25.67
2022-09-03T20:54:39.306Z,25.66
2022-09-03T20:57:05.690Z,25.67
2022-09-03T20:59:32.071Z,25.67
2022-09-03T21:01:58.641Z,25.66
2022-09-03T21:04:24.914Z,25.68
2022-09-03T21:06:51.293Z,25.65
2022-09-03T21:09:17.701Z,25.65
2022-09-03T21:11:44.089Z,25.65
2022-09-03T21:14:10.603Z,25.65
2022-09-03T21:16:36.991Z,25.65
2022-09-03T21:19:03.370Z,25.66
2022-09-03T21:21:32.914Z,25.65
2022-09-03T21:23:56.225Z,25.65
2022-09-03T21:26:22.766Z,25.64
2022-09-03T21:28:49.157Z,25.65
2022-09-03T21:31:15.654Z,25.65
2022-09-03T21:33:41.939Z,25.65
2022-09-03T21:36:08.320Z,25.63
2022-09-03T21:38:34.702Z,25.63
2022-09-03T21:41:01.080Z,25.64
2022-09-03T21:43:27.462Z,25.63
2022-09-03T21:45:53.868Z,25.62
2022-09-03T21:48:20.278Z,25.63
2022-09-03T21:50:46.613Z,25.64
2022-09-03T21:53:12.990Z,25.61
2022-09-03T21:55:39.364Z,25.63
2022-09-03T21:58:05.747Z,25.63
2022-09-03T22:00:32.117Z,25.26
2022-09-03T22:02:58.509Z,25.63
2022-09-03T22:05:24.880Z,25.61
2022-09-03T22:07:53.672Z,25.62
2022-09-03T22:10:20.231Z,25.62
2022-09-03T22:12:44.038Z,25.61
2022-09-03T22:15:10.416Z,25.59
2022-09-03T22:17:36.829Z,25.60
2022-09-03T22:20:03.208Z,25.59
2022-09-03T22:22:29.705Z,25.61
2022-09-03T22:24:56.089Z,25.59
2022-09-03T22:27:22.476Z,25.58
2022-09-03T22:29:49.205Z,25.58
2022-09-03T22:32:15.239Z,25.59
2022-09-03T22:34:41.621Z,25.57
2022-09-03T22:37:08.007Z,25.55
2022-09-03T22:39:36.374Z,25.56
2022-09-03T22:42:00.968Z,25.55
2022-09-03T22:44:27.352Z,25.56
2022-09-03T22:46:53.731Z,25.54
2022-09-03T22:49:20.108Z,25.54
2022-09-03T22:51:46.500Z,25.55
2022-09-03T22:54:12.875Z,25.54
2022-09-03T22:56:39.274Z,25.53
2022-09-03T22:59:05.686Z,25.54
2022-09-03T23:01:32.118Z,25.53
2022-09-03T23:03:58.491Z,25.54
2022-09-03T23:06:24.825Z,25.53
2022-09-03T23:08:51.221Z,25.52
2022-09-03T23:11:17.630Z,25.52
2022-09-03T23:13:44.005Z,25.51
2022-09-03T23:16:10.470Z,25.53
2022-09-03T23:18:36.796Z,25.52
2022-09-03T23:21:03.185Z,25.51
2022-09-03T23:23:29.565Z,25.50
2022-09-03T23:25:55.950Z,25.51
2022-09-03T23:28:22.380Z,25.51
2022-09-03T23:30:48.737Z,25.51
2022-09-03T23:33:15.120Z,25.50
2022-09-03T23:35:41.524Z,25.50
2022-09-03T23:38:07.949Z,25.50
2022-09-03T23:40:34.385Z,25.50
2022-09-03T23:43:00.746Z,25.49
2022-09-03T23:45:27.190Z,25.48
2022-09-03T23:47:53.515Z,25.47
2022-09-03T23:50:19.897Z,25.48
2022-09-03T23:52:46.280Z,25.48
2022-09-03T23:55:12.662Z,25.48
2022-09-03T23:57:39.275Z,25.47
